Hazel Green, Wisconsin
Current Conditions -  °F | °C
As of 4:15 PM on Friday 31 Oct 2014 (Local Time) from KPVB Reporting Station
Scattered Clouds Scattered Clouds  
Wind Chill: 30°   Ceiling: Unl
Heat Index: 40°   Visibility: 10mi
Dew Point: 18°   Wind: 22mph
Humidity: 41%   Direction: 340°NNW
Pressure: 30.37"   Gusts: 28mph
Location:  42.53°N, 90.43°W
Report Text: KPVB 312115Z AUTO 34019G24KT 10SM SCT050 04/M08 A3037 RMK AO1 T00431079
Loading
Personal Weather Stations






























Interactive Weather Map
Tropical Storm Tracking
New forecast layout! Learn more

10-Day Weather Forecast

Advertisements
Track Severe Weather on mobile